TimeCST,TemperatureF,Dew PointF,Humidity,Sea Level PressureIn,VisibilityMPH,Wind Direction,Wind SpeedMPH,Gust SpeedMPH,PrecipitationIn,Events,Conditions,WindDirDegrees,DateUTC
12:15 AM,36.0,33.8,92,30.13,7.0,SE,3.5,-,N/A,,Clear,130,2012-12-01 06:15:00
12:35 AM,35.8,33.8,92,30.13,7.0,SE,3.5,-,N/A,,Clear,130,2012-12-01 06:35:00
12:55 AM,35.1,33.3,93,30.12,7.0,ESE,4.6,-,N/A,,Clear,120,2012-12-01 06:55:00
1:15 AM,36.0,34.3,94,30.13,7.0,SE,3.5,-,N/A,,Clear,140,2012-12-01 07:15:00
1:35 AM,36.1,33.8,91,30.13,7.0,SE,4.6,-,N/A,,Clear,130,2012-12-01 07:35:00
1:55 AM,37.4,35.6,93,30.13,7.0,SSE,5.8,-,N/A,,Clear,150,2012-12-01 07:55:00
2:15 AM,34.9,33.4,94,30.14,7.0,SSE,5.8,-,N/A,,Clear,150,2012-12-01 08:15:00
2:35 AM,37.4,35.6,93,30.14,7.0,SE,4.6,-,N/A,,Clear,140,2012-12-01 08:35:00
2:55 AM,35.6,33.8,93,30.14,5.0,SE,3.5,-,N/A,,Clear,130,2012-12-01 08:55:00
3:15 AM,34.7,33.6,96,30.14,5.0,SE,3.5,-,N/A,,Clear,130,2012-12-01 09:15:00
3:35 AM,35.2,34.2,96,30.14,5.0,ESE,4.6,-,N/A,,Clear,120,2012-12-01 09:35:00
3:55 AM,34.7,33.8,97,30.14,5.0,ESE,4.6,-,N/A,,Clear,120,2012-12-01 09:55:00
4:15 AM,34.9,34.0,97,30.14,4.0,ESE,5.8,-,N/A,,Clear,120,2012-12-01 10:15:00
4:35 AM,35.6,34.7,97,30.13,4.0,SE,5.8,-,N/A,,Clear,130,2012-12-01 10:35:00
4:55 AM,35.4,34.7,97,30.13,3.0,SE,6.9,-,N/A,,Clear,130,2012-12-01 10:55:00
5:15 AM,35.1,34.5,98,30.13,3.0,SE,5.8,-,N/A,,Clear,130,2012-12-01 11:15:00
5:35 AM,34.9,34.3,98,30.14,2.5,SE,3.5,-,N/A,,Clear,140,2012-12-01 11:35:00
5:55 AM,33.8,33.3,98,30.14,2.5,SE,5.8,-,N/A,,Clear,130,2012-12-01 11:55:00
6:15 AM,34.7,34.3,99,30.14,2.0,SE,6.9,-,N/A,,Clear,130,2012-12-01 12:15:00
6:35 AM,34.0,33.6,99,30.14,1.8,SE,4.6,-,N/A,,Mist,140,2012-12-01 12:35:00
6:55 AM,34.7,34.3,99,30.14,1.0,SE,5.8,-,N/A,,Mostly Cloudy,130,2012-12-01 12:55:00
7:15 AM,34.7,34.5,99,30.14,1.0,SE,5.8,-,N/A,,Mist,130,2012-12-01 13:15:00
7:35 AM,35.6,35.2,99,30.14,1.0,SSE,5.8,-,N/A,,Mist,150,2012-12-01 13:35:00
7:55 AM,37.2,36.7,98,30.13,1.2,SSE,6.9,-,N/A,,Mist,150,2012-12-01 13:55:00
8:15 AM,39.4,39.0,99,30.13,1.5,SE,5.8,-,N/A,,Mist,140,2012-12-01 14:15:00
8:35 AM,42.1,41.5,98,30.13,2.5,SSE,5.8,-,N/A,,Clear,160,2012-12-01 14:35:00
8:55 AM,45.3,43.9,95,30.13,3.0,South,10.4,-,N/A,,Clear,170,2012-12-01 14:55:00
9:15 AM,46.8,45.0,93,30.13,4.0,SSE,9.2,-,N/A,,Clear,160,2012-12-01 15:15:00
9:35 AM,49.6,46.6,89,30.13,5.0,South,12.7,-,N/A,,Clear,170,2012-12-01 15:35:00
9:55 AM,52.2,48.2,86,30.13,5.0,South,12.7,-,N/A,,Clear,180,2012-12-01 15:55:00
10:15 AM,54.0,49.3,84,30.12,7.0,South,13.8,-,N/A,,Clear,170,2012-12-01 16:15:00
10:35 AM,54.5,49.3,83,30.11,7.0,South,12.7,-,N/A,,Clear,180,2012-12-01 16:35:00
10:55 AM,55.4,50.0,82,30.09,7.0,South,16.1,-,N/A,,Clear,170,2012-12-01 16:55:00
11:15 AM,56.5,50.2,79,30.08,7.0,South,16.1,-,N/A,,Clear,180,2012-12-01 17:15:00
11:35 AM,56.8,50.4,79,30.08,7.0,South,16.1,-,N/A,,Clear,170,2012-12-01 17:35:00
11:55 AM,59.5,51.4,75,30.06,10.0,South,17.3,-,N/A,,Clear,180,2012-12-01 17:55:00
12:15 PM,61.9,51.6,69,30.05,10.0,South,18.4,-,N/A,,Clear,170,2012-12-01 18:15:00
12:35 PM,62.6,51.4,67,30.04,10.0,South,20.7,25.3,N/A,,Clear,170,2012-12-01 18:35:00
12:55 PM,62.8,51.1,66,30.03,10.0,South,19.6,-,N/A,,Clear,180,2012-12-01 18:55:00
1:15 PM,63.9,51.6,64,30.03,10.0,South,20.7,24.2,N/A,,Clear,180,2012-12-01 19:15:00
1:35 PM,64.0,51.4,64,30.02,10.0,South,18.4,23.0,N/A,,Clear,190,2012-12-01 19:35:00
1:55 PM,64.4,51.8,64,30.02,10.0,South,16.1,24.2,N/A,,Clear,190,2012-12-01 19:55:00
2:15 PM,63.5,51.3,64,30.02,10.0,South,16.1,19.6,N/A,,Clear,180,2012-12-01 20:15:00
2:35 PM,63.5,51.4,65,30.01,10.0,South,15.0,-,N/A,,Clear,170,2012-12-01 20:35:00
2:55 PM,62.6,51.8,68,30.01,10.0,South,19.6,-,N/A,,Clear,170,2012-12-01 20:55:00
3:15 PM,62.2,51.8,69,30.01,10.0,South,17.3,-,N/A,,Clear,170,2012-12-01 21:15:00
3:35 PM,61.5,51.8,70,30.00,10.0,South,16.1,24.2,N/A,,Clear,170,2012-12-01 21:35:00
3:55 PM,60.4,51.4,72,30.00,10.0,South,15.0,-,N/A,,Clear,170,2012-12-01 21:55:00
4:15 PM,59.9,51.1,73,29.99,10.0,SSE,15.0,-,N/A,,Clear,160,2012-12-01 22:15:00
4:35 PM,59.2,50.9,74,29.99,10.0,SSE,15.0,-,N/A,,Clear,160,2012-12-01 22:35:00
4:55 PM,58.3,50.9,76,29.99,10.0,South,15.0,-,N/A,,Clear,170,2012-12-01 22:55:00
5:15 PM,57.7,50.5,77,29.99,10.0,South,13.8,-,N/A,,Clear,170,2012-12-01 23:15:00
5:35 PM,57.2,50.0,77,30.00,10.0,South,15.0,-,N/A,,Clear,170,2012-12-01 23:35:00
5:55 PM,57.4,50.2,77,30.00,10.0,South,16.1,21.9,N/A,,Clear,170,2012-12-01 23:55:00
6:15 PM,57.4,50.4,77,29.99,10.0,South,17.3,23.0,N/A,,Clear,170,2012-12-02 00:15:00
6:35 PM,57.4,50.4,77,30.00,10.0,South,17.3,-,N/A,,Clear,170,2012-12-02 00:35:00
6:55 PM,57.7,50.5,77,30.00,10.0,South,18.4,-,N/A,,Clear,170,2012-12-02 00:55:00
7:15 PM,57.7,50.9,78,30.01,10.0,South,18.4,-,N/A,,Clear,170,2012-12-02 01:15:00
7:35 PM,58.3,50.9,76,30.00,10.0,South,17.3,24.2,N/A,,Clear,170,2012-12-02 01:35:00
7:55 PM,59.0,50.9,74,30.00,10.0,South,19.6,25.3,N/A,,Clear,180,2012-12-02 01:55:00
8:15 PM,58.5,50.9,76,30.00,10.0,South,16.1,-,N/A,,Clear,170,2012-12-02 02:15:00
8:35 PM,58.5,50.9,76,30.00,10.0,South,15.0,-,N/A,,Clear,180,2012-12-02 02:35:00
8:55 PM,58.3,50.4,75,29.99,10.0,South,16.1,-,N/A,,Clear,180,2012-12-02 02:55:00
9:15 PM,58.1,50.2,75,29.99,10.0,South,15.0,21.9,N/A,,Clear,180,2012-12-02 03:15:00
9:35 PM,58.5,50.0,73,29.99,10.0,South,15.0,-,N/A,,Clear,180,2012-12-02 03:35:00
9:55 PM,58.8,49.8,72,29.99,10.0,South,17.3,21.9,N/A,,Clear,180,2012-12-02 03:55:00
10:15 PM,59.4,49.5,70,29.99,10.0,South,16.1,21.9,N/A,,Clear,180,2012-12-02 04:15:00
10:35 PM,59.4,49.3,69,29.99,10.0,South,16.1,-,N/A,,Scattered Clouds,180,2012-12-02 04:35:00
10:55 PM,59.5,49.1,68,29.98,10.0,South,16.1,24.2,N/A,,Clear,190,2012-12-02 04:55:00
11:15 PM,59.4,48.6,67,29.97,10.0,South,15.0,19.6,N/A,,Clear,190,2012-12-02 05:15:00
11:35 PM,59.0,48.4,68,29.97,10.0,South,15.0,-,N/A,,Clear,190,2012-12-02 05:35:00
11:55 PM,59.0,48.4,68,29.96,10.0,South,17.3,20.7,N/A,,Clear,190,2012-12-02 05:55:00